Time;durP1;ratioP1;P1;durP2;ratioP2;P2;SDS_P1;SDS_P2;PMS_P1;PMS_P2;Temp;Humidity;BMP_temperature;BMP_pressure;BME280_temperature;BME280_humidity;BME280_pressure;Samples;Min_cycle;Max_cycle;Signal;HPM_P1;HPM_P2
2020/12/25 00:01:56;;;;;;;3.17;2.88;;;3.30;87.70;;;;;;5011597;28;20029;-67
2020/12/25 00:04:22;;;;;;;3.35;2.40;;;3.10;87.90;;;;;;5021179;28;20032;-66
2020/12/25 00:06:47;;;;;;;4.05;2.60;;;3.10;88.20;;;;;;5020812;28;20038;-67
2020/12/25 00:09:13;;;;;;;3.63;2.50;;;3.20;88.30;;;;;;5021301;28;20060;-66
2020/12/25 00:11:39;;;;;;;3.40;2.25;;;3.10;87.90;;;;;;5026955;28;20026;-67
2020/12/25 00:14:05;;;;;;;2.33;1.98;;;3.10;88.10;;;;;;5021806;28;20481;-66
2020/12/25 00:16:32;;;;;;;2.08;1.92;;;3.10;88.20;;;;;;5024530;28;20029;-66
2020/12/25 00:18:57;;;;;;;2.40;2.20;;;3.10;88.30;;;;;;5032446;28;20017;-66
2020/12/25 00:21:24;;;;;;;2.20;2.00;;;3.10;88.10;;;;;;5026191;28;20026;-66
2020/12/25 00:23:50;;;;;;;3.65;2.30;;;3.10;88.00;;;;;;5029198;28;20478;-66
2020/12/25 00:26:25;;;;;;;2.42;1.95;;;3.00;88.00;;;;;;5033454;28;20028;-65
2020/12/25 00:28:52;;;;;;;2.05;1.95;;;3.00;88.10;;;;;;5027129;28;20522;-66
2020/12/25 00:31:29;;;;;;;2.13;1.92;;;3.10;88.10;;;;;;5020447;28;20084;-65
2020/12/25 00:33:56;;;;;;;2.70;2.10;;;3.10;88.10;;;;;;5018849;28;20215;-66
2020/12/25 00:36:30;;;;;;;2.28;1.83;;;3.10;87.90;;;;;;5018966;28;20030;-66
2020/12/25 00:38:58;;;;;;;4.63;2.35;;;3.10;87.90;;;;;;5032787;28;20026;-66
2020/12/25 00:41:24;;;;;;;3.28;2.10;;;3.10;88.00;;;;;;5015838;28;20394;-66
2020/12/25 00:43:50;;;;;;;2.22;1.98;;;3.10;87.90;;;;;;5019768;28;20022;-67
2020/12/25 00:46:15;;;;;;;2.63;2.00;;;3.10;88.10;;;;;;5023270;28;20394;-67
2020/12/25 00:48:41;;;;;;;2.80;1.88;;;3.10;88.10;;;;;;5013796;28;20033;-66
2020/12/25 00:51:15;;;;;;;2.42;1.80;;;3.10;88.00;;;;;;5023907;28;20030;-65
2020/12/25 00:53:41;;;;;;;2.35;1.85;;;3.10;88.10;;;;;;5024889;28;20112;-66
2020/12/25 00:56:08;;;;;;;1.98;1.80;;;3.20;88.10;;;;;;5032148;28;20112;-66
2020/12/25 00:58:33;;;;;;;1.75;1.50;;;3.20;88.50;;;;;;5029981;28;20027;-67
2020/12/25 01:00:59;;;;;;;1.95;1.50;;;3.20;87.90;;;;;;5027498;28;20097;-66
2020/12/25 01:03:25;;;;;;;1.75;1.40;;;3.10;87.80;;;;;;5023061;28;20027;-66
2020/12/25 01:05:50;;;;;;;1.30;1.20;;;3.00;88.00;;;;;;5035572;28;20128;-66
2020/12/25 01:08:16;;;;;;;1.40;1.30;;;3.00;88.20;;;;;;5029802;28;20071;-66
2020/12/25 01:10:42;;;;;;;1.15;1.15;;;3.00;88.10;;;;;;5018629;28;20076;-66
2020/12/25 01:13:08;;;;;;;1.08;0.95;;;3.10;88.20;;;;;;5031694;28;20504;-67
2020/12/25 01:15:33;;;;;;;1.40;1.10;;;3.10;88.20;;;;;;5021679;28;20030;-66
2020/12/25 01:17:59;;;;;;;1.10;1.10;;;3.10;88.20;;;;;;5029544;28;20087;-66
2020/12/25 01:20:25;;;;;;;1.35;0.70;;;3.10;88.10;;;;;;5030438;28;20041;-66
2020/12/25 01:22:50;;;;;;;0.70;0.70;;;3.10;88.10;;;;;;5027461;28;20112;-66
2020/12/25 01:25:16;;;;;;;0.80;0.80;;;3.10;88.20;;;;;;4999524;28;20086;-66
2020/12/25 01:27:41;;;;;;;0.60;0.60;;;3.20;88.10;;;;;;5031243;28;20061;-66
2020/12/25 01:30:07;;;;;;;0.70;0.70;;;3.20;88.10;;;;;;5030535;28;20049;-67
2020/12/25 01:32:34;;;;;;;0.50;0.50;;;3.20;88.00;;;;;;5022165;28;20033;-66
2020/12/25 01:35:04;;;;;;;0.70;0.50;;;3.20;87.90;;;;;;5032350;28;20471;-65
2020/12/25 01:37:30;;;;;;;0.40;0.40;;;3.20;88.10;;;;;;5023823;28;20497;-67
2020/12/25 01:39:56;;;;;;;0.60;0.60;;;3.20;88.20;;;;;;5024891;28;20025;-66
2020/12/25 01:42:22;;;;;;;0.57;0.57;;;3.20;88.20;;;;;;5024983;28;20026;-66
2020/12/25 01:44:47;;;;;;;0.40;0.40;;;3.20;88.20;;;;;;5021827;28;20056;-66
2020/12/25 01:47:18;;;;;;;0.40;0.40;;;3.30;88.00;;;;;;5025462;28;20052;-66
2020/12/25 01:49:44;;;;;;;0.40;0.40;;;3.20;87.70;;;;;;5021829;28;20030;-66
2020/12/25 01:52:11;;;;;;;0.32;0.32;;;3.20;87.80;;;;;;5030695;28;20036;-66
2020/12/25 01:54:36;;;;;;;2.08;0.30;;;3.20;87.90;;;;;;5029453;28;20026;-66
2020/12/25 01:57:03;;;;;;;0.40;0.40;;;3.20;88.10;;;;;;5029850;28;20025;-66
2020/12/25 01:59:30;;;;;;;0.30;0.30;;;3.20;88.20;;;;;;5022139;28;20088;-67
2020/12/25 02:01:57;;;;;;;0.38;0.38;;;3.10;88.30;;;;;;5000633;28;20025;-67
2020/12/25 02:04:22;;;;;;;0.55;0.35;;;3.20;88.30;;;;;;5026208;28;20355;-66
2020/12/25 02:06:48;;;;;;;0.30;0.30;;;3.20;88.30;;;;;;5020694;28;20037;-67
2020/12/25 02:09:14;;;;;;;0.40;0.40;;;3.20;88.20;;;;;;5024021;28;20501;-66
2020/12/25 02:11:39;;;;;;;0.40;0.40;;;3.20;88.20;;;;;;5018759;28;20033;-67
2020/12/25 02:14:05;;;;;;;0.30;0.30;;;3.20;88.00;;;;;;5022506;28;20405;-66
2020/12/25 02:16:30;;;;;;;0.30;0.30;;;3.20;88.10;;;;;;5018871;28;20500;-67
2020/12/25 02:18:56;;;;;;;0.40;0.40;;;3.20;87.90;;;;;;5022112;28;20032;-66
2020/12/25 02:21:22;;;;;;;0.30;0.30;;;3.20;88.00;;;;;;5031456;28;20034;-66
2020/12/25 02:23:47;;;;;;;1.40;0.43;;;3.20;88.00;;;;;;5024193;28;21410;-66
2020/12/25 02:26:13;;;;;;;0.50;0.50;;;3.20;88.10;;;;;;5024150;28;20033;-66
2020/12/25 02:28:41;;;;;;;0.50;0.50;;;3.20;88.30;;;;;;5019294;28;20083;-65
2020/12/25 02:31:06;;;;;;;0.40;0.40;;;3.20;88.30;;;;;;5028769;28;20429;-66
2020/12/25 02:33:32;;;;;;;0.40;0.40;;;3.20;88.20;;;;;;5029538;28;20056;-66
2020/12/25 02:35:57;;;;;;;0.40;0.40;;;3.30;88.20;;;;;;5016380;28;20155;-66
2020/12/25 02:38:23;;;;;;;0.40;0.40;;;3.20;88.20;;;;;;5016955;28;20030;-66
2020/12/25 02:40:49;;;;;;;0.65;0.50;;;3.30;88.20;;;;;;5022069;28;20025;-67
2020/12/25 02:43:14;;;;;;;0.35;0.35;;;3.30;88.10;;;;;;5030376;28;20116;-66
2020/12/25 02:45:40;;;;;;;0.40;0.40;;;3.30;87.90;;;;;;5027468;28;20120;-66
2020/12/25 02:48:05;;;;;;;0.43;0.43;;;3.40;88.00;;;;;;5026677;28;20477;-67
2020/12/25 02:50:31;;;;;;;0.40;0.40;;;3.40;88.00;;;;;;5014656;28;20030;-67
2020/12/25 02:52:56;;;;;;;0.38;0.38;;;3.40;87.80;;;;;;5017839;28;20105;-66
2020/12/25 02:55:22;;;;;;;0.50;0.50;;;3.50;87.80;;;;;;5013533;28;20091;-66
2020/12/25 02:57:47;;;;;;;0.85;0.40;;;3.50;87.70;;;;;;5026708;28;20040;-66
2020/12/25 03:00:13;;;;;;;0.40;0.40;;;3.50;87.40;;;;;;5024382;28;20101;-66
2020/12/25 03:02:39;;;;;;;0.50;0.50;;;3.50;87.10;;;;;;5024896;28;20026;-66
2020/12/25 03:05:04;;;;;;;0.40;0.40;;;3.50;87.30;;;;;;5010376;28;20025;-66
2020/12/25 03:07:30;;;;;;;0.50;0.50;;;3.50;87.50;;;;;;5024354;28;20080;-66
2020/12/25 03:09:56;;;;;;;0.50;0.50;;;3.60;87.60;;;;;;5018318;28;20035;-67
2020/12/25 03:12:21;;;;;;;0.40;0.40;;;3.60;87.60;;;;;;5018069;28;20182;-67
2020/12/25 03:14:47;;;;;;;0.50;0.50;;;3.60;87.40;;;;;;5020943;28;20104;-66
2020/12/25 03:17:12;;;;;;;0.40;0.40;;;3.70;87.30;;;;;;5011404;28;20071;-66
2020/12/25 03:19:38;;;;;;;0.50;0.50;;;3.70;87.40;;;;;;5025116;28;20025;-67
2020/12/25 03:22:03;;;;;;;0.47;0.47;;;3.60;87.00;;;;;;5016619;28;20032;-66
2020/12/25 03:24:29;;;;;;;0.40;0.40;;;3.60;86.90;;;;;;5027185;28;20065;-66
2020/12/25 03:26:54;;;;;;;0.40;0.40;;;3.60;87.00;;;;;;5020990;28;20394;-67
2020/12/25 03:29:20;;;;;;;0.40;0.40;;;3.50;87.00;;;;;;5020289;28;20491;-66
2020/12/25 03:31:47;;;;;;;0.50;0.50;;;3.50;87.20;;;;;;5003837;28;20676;-67
2020/12/25 03:34:12;;;;;;;0.50;0.50;;;3.50;87.10;;;;;;5027948;28;20022;-66
2020/12/25 03:36:38;;;;;;;0.45;0.45;;;3.50;87.20;;;;;;5027609;28;20033;-66
2020/12/25 03:39:04;;;;;;;0.40;0.40;;;3.40;86.90;;;;;;5022015;28;20026;-66
2020/12/25 03:41:30;;;;;;;0.40;0.40;;;3.40;87.10;;;;;;5010716;28;20105;-67
2020/12/25 03:43:56;;;;;;;0.40;0.40;;;3.40;87.10;;;;;;5026253;28;20550;-66
2020/12/25 03:46:21;;;;;;;0.45;0.45;;;3.30;87.10;;;;;;5012636;28;20041;-66
2020/12/25 03:48:47;;;;;;;0.45;0.40;;;3.30;87.40;;;;;;5027847;28;20026;-67
2020/12/25 03:51:12;;;;;;;0.40;0.40;;;3.30;87.40;;;;;;5016504;28;20117;-66
2020/12/25 03:53:38;;;;;;;0.40;0.40;;;3.30;87.40;;;;;;5024098;28;20041;-66
2020/12/25 03:56:04;;;;;;;0.45;0.45;;;3.30;87.20;;;;;;5042384;22;20132;-66
2020/12/25 03:58:29;;;;;;;0.43;0.43;;;3.30;87.40;;;;;;5012518;28;20030;-66
2020/12/25 04:00:55;;;;;;;0.32;0.32;;;3.30;87.40;;;;;;5005308;28;20042;-66
2020/12/25 04:03:20;;;;;;;0.40;0.40;;;3.30;87.40;;;;;;4990951;28;20037;-67
2020/12/25 04:05:46;;;;;;;0.30;0.30;;;3.30;87.50;;;;;;5004517;28;20113;-65
2020/12/25 04:08:12;;;;;;;0.50;0.50;;;3.30;87.50;;;;;;4996600;28;20034;-65
2020/12/25 04:10:37;;;;;;;0.40;0.40;;;3.40;87.40;;;;;;5010524;28;20100;-66
2020/12/25 04:13:05;;;;;;;0.50;0.50;;;3.40;87.50;;;;;;4997406;28;20039;-65
2020/12/25 04:15:31;;;;;;;0.40;0.40;;;3.40;87.50;;;;;;5001514;28;20030;-66
2020/12/25 04:17:56;;;;;;;0.50;0.50;;;3.40;87.60;;;;;;5004641;28;20054;-66
2020/12/25 04:20:22;;;;;;;0.60;0.60;;;3.40;87.60;;;;;;5008637;28;20055;-66
2020/12/25 04:22:48;;;;;;;0.40;0.40;;;3.50;87.60;;;;;;5002922;28;20042;-66
2020/12/25 04:25:13;;;;;;;0.60;0.60;;;3.50;87.70;;;;;;5011161;28;20058;-66
2020/12/25 04:27:39;;;;;;;0.60;0.60;;;3.50;87.70;;;;;;5004053;28;20033;-66
2020/12/25 04:30:04;;;;;;;0.90;0.60;;;3.50;87.70;;;;;;4985033;28;20110;-65
2020/12/25 04:32:30;;;;;;;0.50;0.50;;;3.60;87.70;;;;;;5002354;28;20444;-66
2020/12/25 04:34:56;;;;;;;0.68;0.68;;;3.60;87.60;;;;;;4988424;28;20027;-65
2020/12/25 04:37:21;;;;;;;0.80;0.80;;;3.60;87.70;;;;;;5000482;28;20117;-66
2020/12/25 04:39:47;;;;;;;0.70;0.70;;;3.60;87.50;;;;;;4996625;28;20022;-65
2020/12/25 04:42:12;;;;;;;0.60;0.60;;;3.60;87.50;;;;;;4986173;28;20113;-66
2020/12/25 04:44:38;;;;;;;0.65;0.65;;;3.70;87.40;;;;;;5003351;28;20038;-66
2020/12/25 04:47:08;;;;;;;0.70;0.70;;;3.70;87.00;;;;;;4997716;28;20037;-66
2020/12/25 04:49:35;;;;;;;0.60;0.60;;;3.60;86.90;;;;;;5001486;28;20541;-66
2020/12/25 04:52:01;;;;;;;0.50;0.50;;;3.60;87.00;;;;;;5002696;28;20068;-64
2020/12/25 04:54:27;;;;;;;0.68;0.68;;;3.60;87.10;;;;;;5009847;28;20347;-66
2020/12/25 04:56:52;;;;;;;0.75;0.75;;;3.60;87.20;;;;;;5012865;28;20030;-65
2020/12/25 04:59:18;;;;;;;0.73;0.73;;;3.60;87.20;;;;;;5008711;28;20495;-67
2020/12/25 05:01:43;;;;;;;0.80;0.80;;;3.60;87.90;;;;;;5009751;28;20443;-65
2020/12/25 05:04:19;;;;;;;0.95;0.93;;;3.50;87.30;;;;;;4992170;28;20489;-66
2020/12/25 05:06:49;;;;;;;0.90;0.90;;;3.60;87.50;;;;;;5009566;28;20025;-66
2020/12/25 05:09:16;;;;;;;0.98;0.98;;;3.60;87.40;;;;;;5013989;28;20104;-65
2020/12/25 05:11:43;;;;;;;1.00;1.00;;;3.60;87.30;;;;;;5015995;28;20022;-66
2020/12/25 05:14:08;;;;;;;1.15;1.05;;;3.60;87.20;;;;;;4999682;28;20026;-66
2020/12/25 05:16:37;;;;;;;1.70;1.60;;;3.60;87.20;;;;;;4985505;28;20034;-66
2020/12/25 05:19:05;;;;;;;1.40;1.30;;;3.60;87.20;;;;;;5011955;28;20047;-66
2020/12/25 05:21:37;;;;;;;1.52;1.42;;;3.50;87.20;;;;;;5011045;28;20069;-66
2020/12/25 05:24:04;;;;;;;1.67;1.55;;;3.50;87.30;;;;;;5011553;28;20076;-66
2020/12/25 05:26:32;;;;;;;2.08;1.80;;;3.50;87.30;;;;;;5010230;28;20034;-66
2020/12/25 05:28:59;;;;;;;1.90;1.73;;;3.60;87.30;;;;;;5011091;28;20093;-65
2020/12/25 05:31:24;;;;;;;2.28;2.08;;;3.50;87.30;;;;;;4987155;28;20109;-68
2020/12/25 05:33:50;;;;;;;2.00;1.90;;;3.50;87.30;;;;;;5004105;28;20065;-67
2020/12/25 05:36:17;;;;;;;2.20;2.00;;;3.60;87.40;;;;;;5005482;28;20034;-66
2020/12/25 05:38:50;;;;;;;4.70;2.00;;;3.60;87.40;;;;;;4987515;28;20022;-66
2020/12/25 05:41:16;;;;;;;2.67;2.03;;;3.60;87.30;;;;;;4997905;28;20030;-65
2020/12/25 05:43:50;;;;;;;2.10;1.90;;;3.60;87.30;;;;;;5010884;28;20600;-65
2020/12/25 05:46:17;;;;;;;2.13;1.92;;;3.60;87.40;;;;;;5014371;28;20336;-66
2020/12/25 05:48:51;;;;;;;1.85;1.75;;;3.60;87.40;;;;;;5007751;28;20298;-66
2020/12/25 05:51:16;;;;;;;2.35;1.92;;;3.60;87.50;;;;;;5012766;28;20145;-66
2020/12/25 05:53:44;;;;;;;2.42;1.85;;;3.60;87.40;;;;;;4981790;28;20062;-65
2020/12/25 05:56:13;;;;;;;1.98;1.77;;;3.60;87.40;;;;;;4980285;28;20075;-66
2020/12/25 05:58:43;;;;;;;2.10;1.90;;;3.70;87.40;;;;;;5004987;28;20169;-66
2020/12/25 06:01:10;;;;;;;2.20;1.75;;;3.70;87.40;;;;;;5007378;28;20037;-66
2020/12/25 06:03:37;;;;;;;1.75;1.65;;;3.60;87.30;;;;;;5011081;28;20041;-66
2020/12/25 06:06:20;;;;;;;1.83;1.73;;;3.60;87.30;;;;;;4999603;28;20037;-66
2020/12/25 06:08:58;;;;;;;1.50;1.40;;;3.60;87.30;;;;;;5002269;28;20428;-66
2020/12/25 06:11:30;;;;;;;2.22;1.80;;;3.70;87.40;;;;;;5007006;28;20132;-67
2020/12/25 06:13:57;;;;;;;1.65;1.55;;;3.60;87.40;;;;;;4982613;28;20509;-66
2020/12/25 06:16:23;;;;;;;2.25;2.03;;;3.60;87.20;;;;;;5011849;28;20034;-66
2020/12/25 06:19:08;;;;;;;2.08;1.88;;;3.60;87.10;;;;;;5011261;28;20030;-65
2020/12/25 06:21:40;;;;;;;2.33;2.13;;;3.60;87.20;;;;;;5010382;28;20530;-66
2020/12/25 06:24:13;;;;;;;2.30;2.10;;;3.60;87.20;;;;;;4999373;28;20090;-66
2020/12/25 06:26:40;;;;;;;2.17;2.08;;;3.60;87.10;;;;;;5011819;28;20397;-66
2020/12/25 06:29:06;;;;;;;2.78;2.58;;;3.60;87.00;;;;;;5004217;28;20033;-66
2020/12/25 06:31:45;;;;;;;2.83;2.63;;;3.60;86.90;;;;;;5000203;28;20097;-65
2020/12/25 06:34:11;;;;;;;2.40;2.20;;;3.60;87.20;;;;;;4990633;28;20474;-65
2020/12/25 06:36:43;;;;;;;6.40;3.95;;;3.60;87.70;;;;;;5004422;28;20022;-66
2020/12/25 06:39:11;;;;;;;2.63;2.10;;;3.60;87.10;;;;;;4982128;28;20054;-66
2020/12/25 06:41:37;;;;;;;2.83;2.60;;;3.70;87.00;;;;;;5008652;28;20175;-66
2020/12/25 06:44:09;;;;;;;2.85;2.55;;;3.60;87.20;;;;;;5006809;28;20025;-66
2020/12/25 06:46:35;;;;;;;;;;;3.60;87.20;;;;;;5007293;28;20053;-66
2020/12/25 06:49:08;;;;;;;2.38;2.17;;;3.60;87.30;;;;;;4998830;28;19936;-66
2020/12/25 06:51:40;;;;;;;;;;;3.70;87.30;;;;;;4989425;28;20040;-67
2020/12/25 06:54:12;;;;;;;2.92;2.63;;;3.70;87.40;;;;;;4995191;28;19909;-67
2020/12/25 06:56:41;;;;;;;3.33;3.03;;;3.70;87.20;;;;;;5006391;28;20061;-66
2020/12/25 06:59:17;;;;;;;3.40;2.90;;;3.70;87.30;;;;;;5009397;28;20501;-66
2020/12/25 07:01:45;;;;;;;4.55;3.40;;;3.70;87.40;;;;;;4992227;28;20668;-66
2020/12/25 07:04:28;;;;;;;3.92;3.05;;;3.70;87.30;;;;;;5001100;28;20029;-67
2020/12/25 07:07:00;;;;;;;3.80;3.10;;;3.70;87.40;;;;;;5001241;28;20010;-65
2020/12/25 07:09:52;;;;;;;3.63;3.22;;;3.70;87.40;;;;;;5010841;28;20538;-65
2020/12/25 07:12:22;;;;;;;6.63;3.97;;;3.70;87.40;;;;;;4996684;28;20053;-66
2020/12/25 07:14:49;;;;;;;5.72;3.58;;;3.70;87.40;;;;;;4982444;28;20029;-67
2020/12/25 07:17:15;;;;;;;3.92;3.22;;;3.80;87.50;;;;;;4991737;28;20434;-66
2020/12/25 07:19:43;;;;;;;5.22;3.85;;;3.80;87.50;;;;;;5007516;28;20128;-66
2020/12/25 07:22:09;;;;;;;4.95;3.42;;;3.80;87.40;;;;;;4996771;28;20097;-66
2020/12/25 07:24:39;;;;;;;5.60;3.88;;;3.80;87.40;;;;;;4997259;28;20068;-65
2020/12/25 07:27:06;;;;;;;4.88;3.75;;;3.80;87.40;;;;;;5005044;28;20142;-66
2020/12/25 07:29:32;;;;;;;6.30;4.38;;;3.80;87.30;;;;;;4999515;28;20030;-67
2020/12/25 07:31:57;;;;;;;5.65;4.00;;;3.80;87.30;;;;;;4995910;28;20100;-65
2020/12/25 07:34:24;;;;;;;6.03;4.28;;;3.80;87.30;;;;;;5008537;28;20164;-65
2020/12/25 07:36:51;;;;;;;5.28;4.22;;;3.80;87.30;;;;;;4993371;28;20029;-66
2020/12/25 07:39:17;;;;;;;7.03;4.45;;;3.70;87.30;;;;;;5001355;28;20057;-64
2020/12/25 07:41:44;;;;;;;5.88;4.70;;;3.80;87.40;;;;;;5004757;28;20025;-65
2020/12/25 07:44:10;;;;;;;7.30;4.65;;;3.80;87.40;;;;;;5002901;28;20029;-64
2020/12/25 07:46:37;;;;;;;6.82;4.78;;;3.80;87.40;;;;;;4990956;28;20033;-65
2020/12/25 07:49:04;;;;;;;5.88;4.80;;;3.70;87.30;;;;;;4996787;28;20029;-64
2020/12/25 07:51:30;;;;;;;6.75;4.78;;;3.80;87.40;;;;;;4999080;28;20030;-65
2020/12/25 07:54:00;;;;;;;6.40;4.10;;;3.70;87.30;;;;;;5002965;28;20133;-65
2020/12/25 07:56:31;;;;;;;6.97;4.47;;;3.70;87.40;;;;;;4996406;28;20034;-65
2020/12/25 07:58:58;;;;;;;7.07;4.40;;;3.70;87.40;;;;;;5005066;28;20753;-65
2020/12/25 08:01:26;;;;;;;6.20;4.57;;;3.70;87.50;;;;;;4996801;28;20092;-66
2020/12/25 08:03:52;;;;;;;6.07;4.65;;;3.70;87.50;;;;;;5003509;28;20534;-66
2020/12/25 08:06:21;;;;;;;8.73;4.75;;;3.80;87.60;;;;;;4983721;28;20038;-65
2020/12/25 08:09:09;;;;;;;8.40;4.97;;;3.80;87.50;;;;;;5006459;28;20018;-66
2020/12/25 08:11:36;;;;;;;9.07;5.30;;;3.80;87.40;;;;;;5000269;28;20085;-65
2020/12/25 08:14:07;;;;;;;7.30;5.00;;;3.80;87.50;;;;;;4995890;28;20030;-65
2020/12/25 08:16:36;;;;;;;6.47;4.88;;;3.80;87.50;;;;;;5005422;28;20034;-65
2020/12/25 08:19:05;;;;;;;6.82;5.03;;;3.80;87.50;;;;;;5003846;28;20030;-65
2020/12/25 08:21:31;;;;;;;9.07;5.60;;;3.80;87.40;;;;;;5004237;28;20042;-65
2020/12/25 08:23:58;;;;;;;9.27;5.43;;;3.90;87.40;;;;;;4983466;28;20073;-65
2020/12/25 08:26:31;;;;;;;10.50;5.85;;;3.90;87.30;;;;;;4984972;28;20081;-66
2020/12/25 08:28:57;;;;;;;11.32;6.22;;;3.90;87.30;;;;;;4981763;28;20031;-65
2020/12/25 08:31:23;;;;;;;12.77;6.50;;;3.90;87.30;;;;;;4993880;28;20090;-65
2020/12/25 08:33:56;;;;;;;10.38;5.80;;;3.90;87.30;;;;;;5005961;28;20116;-65
2020/12/25 08:36:22;;;;;;;10.23;6.03;;;3.90;87.30;;;;;;5008824;28;20113;-66
2020/12/25 08:38:48;;;;;;;12.38;6.72;;;3.90;87.30;;;;;;5009897;28;20026;-66
2020/12/25 08:41:14;;;;;;;8.10;5.95;;;3.90;87.30;;;;;;5005362;28;20030;-65
2020/12/25 08:43:39;;;;;;;9.80;6.20;;;3.90;87.30;;;;;;5006371;28;20033;-65
2020/12/25 08:46:05;;;;;;;10.02;6.40;;;4.00;87.50;;;;;;5001498;28;20375;-66
2020/12/25 08:48:33;;;;;;;10.27;6.20;;;4.00;87.30;;;;;;5004100;28;20478;-66
2020/12/25 08:51:10;;;;;;;9.60;6.07;;;4.00;87.50;;;;;;5003948;28;20037;-65
2020/12/25 08:53:37;;;;;;;8.48;6.32;;;4.00;87.60;;;;;;5011077;28;20581;-65
2020/12/25 08:56:22;;;;;;;10.25;6.22;;;4.00;87.50;;;;;;5003850;28;20037;-66
2020/12/25 08:59:00;;;;;;;9.07;6.32;;;4.00;87.50;;;;;;5005052;28;20076;-67
2020/12/25 09:01:28;;;;;;;8.25;5.97;;;4.10;87.50;;;;;;5019619;28;20022;-66
2020/12/25 09:03:56;;;;;;;10.85;6.60;;;4.10;87.50;;;;;;5015459;28;20383;-67
2020/12/25 09:06:22;;;;;;;10.00;6.30;;;4.10;87.40;;;;;;5029588;28;20486;-65
2020/12/25 09:08:47;;;;;;;13.23;6.30;;;4.10;87.50;;;;;;5010977;28;20041;-66
2020/12/25 09:11:15;;;;;;;10.57;6.10;;;4.10;87.50;;;;;;5002449;28;20414;-66
2020/12/25 09:13:41;;;;;;;13.70;6.03;;;4.10;87.40;;;;;;5005378;28;20026;-67
2020/12/25 09:16:07;;;;;;;9.38;6.05;;;4.10;87.20;;;;;;5005659;28;20041;-66
2020/12/25 09:18:39;;;;;;;10.77;6.55;;;4.10;87.30;;;;;;4992401;28;20524;-66
2020/12/25 09:21:07;;;;;;;11.15;6.25;;;4.10;87.40;;;;;;4998080;28;20054;-67
2020/12/25 09:23:33;;;;;;;11.00;6.60;;;4.00;87.30;;;;;;5006829;28;20022;-67
2020/12/25 09:25:59;;;;;;;9.18;6.32;;;4.10;87.40;;;;;;5007410;28;20030;-66
2020/12/25 09:28:25;;;;;;;10.25;6.07;;;4.10;87.40;;;;;;5001551;28;20759;-66
2020/12/25 09:30:54;;;;;;;9.95;6.28;;;4.10;87.40;;;;;;5011524;28;20462;-66
2020/12/25 09:33:21;;;;;;;9.95;5.97;;;4.10;87.40;;;;;;4992247;28;20030;-66
2020/12/25 09:35:47;;;;;;;10.60;6.72;;;4.10;87.40;;;;;;5005612;28;20105;-66
2020/12/25 09:38:13;;;;;;;11.35;6.25;;;4.10;87.50;;;;;;4987232;28;20034;-66
2020/12/25 09:40:39;;;;;;;9.73;6.40;;;4.10;87.40;;;;;;4980867;28;20026;-66
2020/12/25 09:43:05;;;;;;;12.18;6.50;;;4.10;87.40;;;;;;5004116;28;20076;-66
2020/12/25 09:45:30;;;;;;;15.27;8.27;;;4.10;87.40;;;;;;4982178;28;20030;-66
2020/12/25 09:47:56;;;;;;;10.63;6.18;;;4.10;87.40;;;;;;4991263;28;20036;-66
2020/12/25 09:50:22;;;;;;;9.50;6.43;;;4.10;87.30;;;;;;5014176;28;20461;-66
2020/12/25 09:52:47;;;;;;;10.95;6.00;;;4.20;87.20;;;;;;4993077;28;20030;-67
2020/12/25 09:55:13;;;;;;;8.32;6.30;;;4.20;87.20;;;;;;4995650;28;20038;-66
2020/12/25 09:57:39;;;;;;;8.20;6.05;;;4.10;87.10;;;;;;5039181;22;20464;-66
2020/12/25 10:00:09;;;;;;;9.45;5.75;;;4.10;87.10;;;;;;5026889;28;20072;-68
2020/12/25 10:02:35;;;;;;;9.48;6.00;;;4.10;87.20;;;;;;5026695;28;20072;-65
2020/12/25 10:05:01;;;;;;;8.13;5.85;;;4.10;87.20;;;;;;5018223;28;20474;-65
2020/12/25 10:07:27;;;;;;;8.25;6.30;;;4.20;87.10;;;;;;5018104;28;20034;-66
2020/12/25 10:09:53;;;;;;;9.32;6.40;;;4.20;87.00;;;;;;5026493;28;20026;-67
2020/12/25 10:12:18;;;;;;;12.00;5.90;;;4.20;87.00;;;;;;5026122;28;20103;-66
2020/12/25 10:14:44;;;;;;;10.05;5.82;;;4.30;87.00;;;;;;5021732;28;20109;-66
2020/12/25 10:17:09;;;;;;;11.00;6.05;;;4.30;87.00;;;;;;5013222;28;20029;-66
2020/12/25 10:19:35;;;;;;;9.73;6.00;;;4.30;87.00;;;;;;5026967;28;20029;-66
2020/12/25 10:22:01;;;;;;;7.88;5.68;;;4.40;86.90;;;;;;5023836;28;20028;-66
2020/12/25 10:24:26;;;;;;;8.43;5.97;;;4.40;86.70;;;;;;5025847;28;20510;-66
2020/12/25 10:26:52;;;;;;;8.90;5.93;;;4.40;86.70;;;;;;5024543;28;20025;-68
2020/12/25 10:29:20;;;;;;;9.10;6.45;;;4.40;86.60;;;;;;5026684;28;20022;-69
2020/12/25 10:31:47;;;;;;;11.52;6.65;;;4.50;86.60;;;;;;5029748;28;20017;-68
2020/12/25 10:34:13;;;;;;;9.10;6.18;;;4.50;86.60;;;;;;5029261;28;20022;-68
2020/12/25 10:36:39;;;;;;;7.97;5.50;;;4.60;86.80;;;;;;5019641;28;20044;-67
2020/12/25 10:39:04;;;;;;;8.40;5.97;;;4.60;86.80;;;;;;5035772;28;20049;-67
2020/12/25 10:41:32;;;;;;;7.18;5.32;;;4.60;86.70;;;;;;5030911;28;20052;-67
2020/12/25 10:43:58;;;;;;;7.78;5.80;;;4.60;86.70;;;;;;5024113;28;20508;-67
2020/12/25 10:46:26;;;;;;;7.68;5.75;;;4.60;86.70;;;;;;5025023;28;20042;-67
2020/12/25 10:48:52;;;;;;;8.57;5.47;;;4.60;86.50;;;;;;5027387;28;20033;-67
2020/12/25 10:51:19;;;;;;;8.88;5.68;;;4.50;86.40;;;;;;5028446;28;20029;-65
2020/12/25 10:53:45;;;;;;;7.45;5.20;;;4.50;86.50;;;;;;5025860;28;20022;-68
2020/12/25 10:56:19;;;;;;;9.00;5.45;;;4.60;87.00;;;;;;5027701;28;20017;-69
2020/12/25 10:58:45;;;;;;;6.00;4.60;;;4.60;86.40;;;;;;5025746;28;20028;-72
2020/12/25 11:01:10;;;;;;;6.95;5.15;;;4.60;86.30;;;;;;5030991;28;20104;-71
2020/12/25 11:03:36;;;;;;;6.60;4.90;;;4.60;86.40;;;;;;5028905;28;20056;-71
2020/12/25 11:06:01;;;;;;;6.57;4.63;;;4.60;86.30;;;;;;5023616;28;20544;-67
2020/12/25 11:08:27;;;;;;;9.90;5.25;;;4.60;86.20;;;;;;5024451;28;20044;-66
2020/12/25 11:10:52;;;;;;;5.63;4.18;;;4.60;86.30;;;;;;5033687;28;20056;-66
2020/12/25 11:13:18;;;;;;;6.80;4.97;;;4.60;86.20;;;;;;5028309;28;20647;-67
2020/12/25 11:15:43;;;;;;;9.00;5.00;;;4.60;86.20;;;;;;5027160;28;20030;-66
2020/12/25 11:18:09;;;;;;;6.18;4.70;;;4.60;86.00;;;;;;5023450;28;20022;-66
2020/12/25 11:20:34;;;;;;;5.85;4.50;;;4.60;86.00;;;;;;5022487;28;20033;-65
2020/12/25 11:23:00;;;;;;;6.93;4.65;;;4.50;85.90;;;;;;5028407;28;20029;-66
2020/12/25 11:25:26;;;;;;;10.40;5.20;;;4.50;86.10;;;;;;5028037;28;20112;-66
2020/12/25 11:27:51;;;;;;;7.55;4.72;;;4.50;86.20;;;;;;5028198;28;20432;-66
2020/12/25 11:30:17;;;;;;;8.02;5.03;;;4.60;86.20;;;;;;5022502;28;20040;-66
2020/12/25 11:32:42;;;;;;;7.72;4.82;;;4.50;86.10;;;;;;5018442;28;20041;-66
2020/12/25 11:35:08;;;;;;;7.38;4.80;;;4.50;86.20;;;;;;5005832;28;20029;-66
2020/12/25 11:37:33;;;;;;;5.55;4.70;;;4.50;86.10;;;;;;5025069;28;20104;-66
2020/12/25 11:39:59;;;;;;;6.63;4.60;;;4.40;86.00;;;;;;5013785;28;20030;-66
2020/12/25 11:42:25;;;;;;;8.85;4.47;;;4.40;86.00;;;;;;5011398;28;20221;-66
2020/12/25 11:44:50;;;;;;;6.10;4.70;;;4.40;86.00;;;;;;5024940;28;20434;-66
2020/12/25 11:47:16;;;;;;;7.05;4.32;;;4.30;86.10;;;;;;5020937;28;20029;-65
2020/12/25 11:49:41;;;;;;;6.72;4.53;;;4.30;86.10;;;;;;5014281;28;20036;-65
2020/12/25 11:52:07;;;;;;;7.10;4.53;;;4.30;86.20;;;;;;5012510;28;20124;-66
2020/12/25 11:54:32;;;;;;;9.45;4.55;;;4.30;86.00;;;;;;5032544;28;20040;-66
2020/12/25 11:56:58;;;;;;;6.00;4.22;;;4.20;86.00;;;;;;5014069;28;20448;-66
2020/12/25 11:59:23;;;;;;;5.60;4.25;;;4.20;85.90;;;;;;5030729;28;20056;-66
2020/12/25 12:01:49;;;;;;;6.55;4.40;;;4.20;86.10;;;;;;5039209;28;20026;-66
2020/12/25 12:04:14;;;;;;;7.03;4.40;;;4.20;86.20;;;;;;5009682;28;20053;-66
2020/12/25 12:06:41;;;;;;;6.90;4.45;;;4.20;86.30;;;;;;5021064;28;20478;-66
2020/12/25 12:09:07;;;;;;;5.82;4.43;;;4.20;86.20;;;;;;5023771;28;20053;-66
2020/12/25 12:11:39;;;;;;;7.88;4.80;;;4.30;86.20;;;;;;5032057;28;20428;-66
2020/12/25 12:14:04;;;;;;;6.53;4.55;;;4.30;85.90;;;;;;5033248;28;20048;-66
2020/12/25 12:16:30;;;;;;;8.65;4.50;;;4.30;86.00;;;;;;5022070;28;20038;-66
2020/12/25 12:18:56;;;;;;;7.45;4.38;;;4.20;85.90;;;;;;5027666;28;20029;-66
2020/12/25 12:21:24;;;;;;;7.40;4.53;;;4.20;86.00;;;;;;5034944;28;20037;-66
2020/12/25 12:23:50;;;;;;;7.20;4.65;;;4.20;86.00;;;;;;5029823;28;20026;-66
2020/12/25 12:26:15;;;;;;;6.60;4.40;;;4.20;86.00;;;;;;5030917;28;20112;-66
2020/12/25 12:28:41;;;;;;;5.63;3.80;;;4.20;85.90;;;;;;5034304;28;20485;-66
2020/12/25 12:31:06;;;;;;;8.23;4.70;;;4.30;85.90;;;;;;5017483;28;20438;-66
2020/12/25 12:33:32;;;;;;;7.72;4.57;;;4.30;85.90;;;;;;5023403;28;20029;-68
2020/12/25 12:35:57;;;;;;;7.80;4.40;;;4.30;85.90;;;;;;5025837;28;20526;-68
2020/12/25 12:38:23;;;;;;;6.65;4.45;;;4.20;85.80;;;;;;5024810;28;20044;-66
2020/12/25 12:40:49;;;;;;;7.25;4.30;;;4.20;85.80;;;;;;5032407;28;20018;-66
2020/12/25 12:43:14;;;;;;;6.45;4.10;;;4.20;85.70;;;;;;5024863;28;20065;-66
2020/12/25 12:45:40;;;;;;;7.50;4.38;;;4.20;85.80;;;;;;5015023;28;20034;-66
2020/12/25 12:48:05;;;;;;;5.50;3.90;;;4.10;85.60;;;;;;5023689;28;20751;-66
2020/12/25 12:50:31;;;;;;;7.68;4.10;;;4.20;85.60;;;;;;5024859;28;20033;-66
2020/12/25 12:52:56;;;;;;;5.50;3.90;;;4.10;85.50;;;;;;5008501;28;20513;-66
2020/12/25 12:55:22;;;;;;;6.22;3.85;;;4.10;85.10;;;;;;5024202;28;20097;-66
2020/12/25 12:57:48;;;;;;;5.70;3.53;;;4.10;85.10;;;;;;5028494;28;20025;-66